Poughkeepsie, Arkansas
Current Conditions -  °F | °C
As of 2:35 AM on Monday 26 Jan 2015 (Local Time) from KBVX Reporting Station
Overcast Overcast  
Wind Chill: 34°   Ceiling: 2400
Heat Index: 39°   Visibility: 10mi
Dew Point: 30°   Wind: 8mph
Humidity: 70%   Direction: 310°NW
Pressure: 30.07"   Gusts: 17mph
Location:  36.08°N, 91.48°W
Report Text: KBVX 260835Z AUTO 31007G15KT 210V360 10SM OVC024 04/M01 A3007 RMK AO1
Loading
Personal Weather Stations






























Interactive Weather Map New forecast layout! Learn more

10-Day Weather Forecast

Advertisements
Track Severe Weather on mobile